sensor_id;sensor_type;location;lat;lon;timestamp;pressure;altitude;pressure_sealevel;temperature;humidity
40918;BME280;26644;50.248;19.032;2023-03-11T00:00:45;95521.84;;;9.19;65.89
40918;BME280;26644;50.248;19.032;2023-03-11T00:03:50;95534.25;;;9.28;65.89
40918;BME280;26644;50.248;19.032;2023-03-11T00:06:55;95528.34;;;9.26;65.69
40918;BME280;26644;50.248;19.032;2023-03-11T00:10:00;95530.84;;;9.32;65.46
40918;BME280;26644;50.248;19.032;2023-03-11T00:13:11;95516.47;;;9.22;65.20
40918;BME280;26644;50.248;19.032;2023-03-11T00:16:17;95521.59;;;9.36;64.80
40918;BME280;26644;50.248;19.032;2023-03-11T00:19:22;95531.53;;;9.41;64.71
40918;BME280;26644;50.248;19.032;2023-03-11T00:22:27;95540.75;;;9.49;64.63
40918;BME280;26644;50.248;19.032;2023-03-11T00:25:34;95546.44;;;9.43;64.53
40918;BME280;26644;50.248;19.032;2023-03-11T00:28:43;95529.47;;;9.38;64.61
40918;BME280;26644;50.248;19.032;2023-03-11T00:31:50;95528.22;;;9.35;64.53
40918;BME280;26644;50.248;19.032;2023-03-11T00:34:54;95519.09;;;9.31;64.59
40918;BME280;26644;50.248;19.032;2023-03-11T00:38:02;95507.09;;;9.23;64.76
40918;BME280;26644;50.248;19.032;2023-03-11T00:41:09;95498.56;;;9.13;64.84
40918;BME280;26644;50.248;19.032;2023-03-11T00:44:17;95505.50;;;9.10;65.28
40918;BME280;26644;50.248;19.032;2023-03-11T00:47:22;95504.94;;;9.04;65.30
40918;BME280;26644;50.248;19.032;2023-03-11T00:50:30;95498.97;;;8.90;65.41
40918;BME280;26644;50.248;19.032;2023-03-11T00:53:36;95507.50;;;8.76;65.92
40918;BME280;26644;50.248;19.032;2023-03-11T00:56:42;95508.44;;;8.80;66.10
40918;BME280;26644;50.248;19.032;2023-03-11T00:59:49;95506.03;;;8.78;66.16
40918;BME280;26644;50.248;19.032;2023-03-11T01:02:55;95512.41;;;8.83;66.17
40918;BME280;26644;50.248;19.032;2023-03-11T01:06:00;95505.44;;;8.73;65.65
40918;BME280;26644;50.248;19.032;2023-03-11T01:09:06;95503.25;;;8.66;64.92
40918;BME280;26644;50.248;19.032;2023-03-11T01:12:11;95509.28;;;8.72;64.18
40918;BME280;26644;50.248;19.032;2023-03-11T01:15:23;95489.13;;;8.64;63.23
40918;BME280;26644;50.248;19.032;2023-03-11T01:18:30;95512.38;;;8.70;62.59
40918;BME280;26644;50.248;19.032;2023-03-11T01:21:35;95525.59;;;8.68;62.23
40918;BME280;26644;50.248;19.032;2023-03-11T01:24:41;95523.44;;;8.74;62.11
40918;BME280;26644;50.248;19.032;2023-03-11T01:27:47;95527.44;;;8.76;61.80
40918;BME280;26644;50.248;19.032;2023-03-11T01:30:54;95515.13;;;8.70;61.53
40918;BME280;26644;50.248;19.032;2023-03-11T01:34:00;95522.19;;;8.71;61.58
40918;BME280;26644;50.248;19.032;2023-03-11T01:37:04;95525.94;;;8.67;61.37
40918;BME280;26644;50.248;19.032;2023-03-11T01:40:16;95510.41;;;8.58;60.98
40918;BME280;26644;50.248;19.032;2023-03-11T01:43:48;95520.34;;;8.63;60.77
40918;BME280;26644;50.248;19.032;2023-03-11T01:47:33;95529.44;;;8.55;60.71
40918;BME280;26644;50.248;19.032;2023-03-11T01:50:44;95526.81;;;8.58;60.28
40918;BME280;26644;50.248;19.032;2023-03-11T01:53:55;95506.75;;;8.54;59.95
40918;BME280;26644;50.248;19.032;2023-03-11T01:57:05;95513.28;;;8.62;59.68
40918;BME280;26644;50.248;19.032;2023-03-11T02:00:17;95513.16;;;8.58;59.77
40918;BME280;26644;50.248;19.032;2023-03-11T02:03:29;95495.66;;;8.38;60.47
40918;BME280;26644;50.248;19.032;2023-03-11T02:06:37;95515.06;;;8.45;60.77
40918;BME280;26644;50.248;19.032;2023-03-11T02:09:42;95507.53;;;8.42;62.25
40918;BME280;26644;50.248;19.032;2023-03-11T02:12:50;95502.59;;;8.36;63.37
40918;BME280;26644;50.248;19.032;2023-03-11T02:16:03;95494.59;;;8.31;64.21
40918;BME280;26644;50.248;19.032;2023-03-11T02:19:26;95508.09;;;8.15;64.95
40918;BME280;26644;50.248;19.032;2023-03-11T02:22:41;95500.00;;;8.06;64.82
40918;BME280;26644;50.248;19.032;2023-03-11T02:25:56;95516.50;;;8.09;65.14
40918;BME280;26644;50.248;19.032;2023-03-11T02:29:13;95507.13;;;7.98;65.07
40918;BME280;26644;50.248;19.032;2023-03-11T02:32:20;95508.72;;;7.99;64.70
40918;BME280;26644;50.248;19.032;2023-03-11T02:35:26;95501.19;;;7.96;64.60
40918;BME280;26644;50.248;19.032;2023-03-11T02:38:32;95501.31;;;8.00;64.29
40918;BME280;26644;50.248;19.032;2023-03-11T02:41:39;95497.09;;;7.90;63.93
40918;BME280;26644;50.248;19.032;2023-03-11T02:44:56;95503.13;;;7.95;63.19
40918;BME280;26644;50.248;19.032;2023-03-11T02:48:07;95515.72;;;7.88;63.19
40918;BME280;26644;50.248;19.032;2023-03-11T02:51:16;95521.97;;;7.88;63.08
40918;BME280;26644;50.248;19.032;2023-03-11T02:54:21;95523.66;;;7.81;63.46
40918;BME280;26644;50.248;19.032;2023-03-11T02:57:26;95535.72;;;7.80;63.82
40918;BME280;26644;50.248;19.032;2023-03-11T03:00:34;95532.09;;;7.67;63.01
40918;BME280;26644;50.248;19.032;2023-03-11T03:03:42;95520.97;;;7.51;62.58
40918;BME280;26644;50.248;19.032;2023-03-11T03:06:47;95527.72;;;7.44;62.01
40918;BME280;26644;50.248;19.032;2023-03-11T03:09:53;95538.03;;;7.39;61.88
40918;BME280;26644;50.248;19.032;2023-03-11T03:12:58;95524.13;;;7.32;61.42
40918;BME280;26644;50.248;19.032;2023-03-11T03:16:07;95539.78;;;7.43;61.45
40918;BME280;26644;50.248;19.032;2023-03-11T03:19:11;95532.69;;;7.51;61.25
40918;BME280;26644;50.248;19.032;2023-03-11T03:22:17;95537.00;;;7.52;60.51
40918;BME280;26644;50.248;19.032;2023-03-11T03:25:22;95542.91;;;7.33;60.31
40918;BME280;26644;50.248;19.032;2023-03-11T03:28:29;95527.06;;;7.18;61.97
40918;BME280;26644;50.248;19.032;2023-03-11T03:31:37;95524.88;;;7.02;62.63
40918;BME280;26644;50.248;19.032;2023-03-11T03:34:44;95546.44;;;6.86;63.23
40918;BME280;26644;50.248;19.032;2023-03-11T03:37:48;95530.75;;;6.74;63.70
40918;BME280;26644;50.248;19.032;2023-03-11T03:40:55;95541.69;;;6.66;64.26
40918;BME280;26644;50.248;19.032;2023-03-11T03:44:00;95535.94;;;6.58;64.06
40918;BME280;26644;50.248;19.032;2023-03-11T03:47:10;95547.97;;;6.57;64.47
40918;BME280;26644;50.248;19.032;2023-03-11T03:50:15;95551.47;;;6.58;64.96
40918;BME280;26644;50.248;19.032;2023-03-11T03:53:23;95529.72;;;6.49;64.92
40918;BME280;26644;50.248;19.032;2023-03-11T03:56:27;95547.00;;;6.36;65.22
40918;BME280;26644;50.248;19.032;2023-03-11T03:59:33;95531.19;;;6.20;66.14
40918;BME280;26644;50.248;19.032;2023-03-11T04:02:41;95535.97;;;6.23;66.77
40918;BME280;26644;50.248;19.032;2023-03-11T04:06:05;95537.75;;;6.02;68.56
40918;BME280;26644;50.248;19.032;2023-03-11T04:09:11;95545.47;;;5.91;70.31
40918;BME280;26644;50.248;19.032;2023-03-11T04:12:18;95525.56;;;5.73;71.73
40918;BME280;26644;50.248;19.032;2023-03-11T04:15:23;95539.81;;;5.78;71.95
40918;BME280;26644;50.248;19.032;2023-03-11T04:18:31;95540.94;;;5.69;73.00
40918;BME280;26644;50.248;19.032;2023-03-11T04:21:37;95527.94;;;5.48;73.65
40918;BME280;26644;50.248;19.032;2023-03-11T04:24:43;95545.84;;;5.32;73.96
40918;BME280;26644;50.248;19.032;2023-03-11T04:27:47;95524.19;;;5.18;74.66
40918;BME280;26644;50.248;19.032;2023-03-11T04:30:54;95521.94;;;5.11;75.22
40918;BME280;26644;50.248;19.032;2023-03-11T04:34:02;95535.06;;;5.09;76.30
40918;BME280;26644;50.248;19.032;2023-03-11T04:37:08;95524.91;;;4.92;76.83
40918;BME280;26644;50.248;19.032;2023-03-11T04:40:13;95536.44;;;4.98;77.34
40918;BME280;26644;50.248;19.032;2023-03-11T04:43:20;95528.53;;;4.78;77.94
40918;BME280;26644;50.248;19.032;2023-03-11T04:46:25;95532.03;;;4.79;77.16
40918;BME280;26644;50.248;19.032;2023-03-11T04:49:35;95541.69;;;4.85;77.51
40918;BME280;26644;50.248;19.032;2023-03-11T04:52:39;95544.47;;;4.71;77.60
40918;BME280;26644;50.248;19.032;2023-03-11T04:55:45;95542.38;;;4.59;77.39
40918;BME280;26644;50.248;19.032;2023-03-11T04:58:51;95553.47;;;4.49;77.95
40918;BME280;26644;50.248;19.032;2023-03-11T05:01:58;95552.34;;;4.50;79.00
40918;BME280;26644;50.248;19.032;2023-03-11T05:05:08;95542.06;;;4.38;78.73
40918;BME280;26644;50.248;19.032;2023-03-11T05:08:16;95536.69;;;4.24;77.75
40918;BME280;26644;50.248;19.032;2023-03-11T05:11:21;95528.91;;;4.09;77.74
40918;BME280;26644;50.248;19.032;2023-03-11T05:14:27;95555.88;;;4.05;77.97
40918;BME280;26644;50.248;19.032;2023-03-11T05:17:32;95555.50;;;3.98;78.26
40918;BME280;26644;50.248;19.032;2023-03-11T05:20:40;95554.44;;;3.85;78.60
40918;BME280;26644;50.248;19.032;2023-03-11T05:23:46;95554.38;;;3.76;79.09
40918;BME280;26644;50.248;19.032;2023-03-11T05:26:52;95566.94;;;3.72;78.84
40918;BME280;26644;50.248;19.032;2023-03-11T05:29:57;95570.66;;;3.63;79.49
40918;BME280;26644;50.248;19.032;2023-03-11T05:33:06;95487.22;;;2.95;79.83
40918;BME280;26644;50.248;19.032;2023-03-11T05:36:14;95599.84;;;3.43;80.39
40918;BME280;26644;50.248;19.032;2023-03-11T05:39:21;95601.56;;;3.39;80.62
40918;BME280;26644;50.248;19.032;2023-03-11T05:42:26;95607.50;;;3.27;79.84
40918;BME280;26644;50.248;19.032;2023-03-11T05:45:33;95631.66;;;3.09;79.46
40918;BME280;26644;50.248;19.032;2023-03-11T05:48:38;95607.75;;;2.84;79.43
40918;BME280;26644;50.248;19.032;2023-03-11T05:51:46;95641.34;;;2.83;79.51
40918;BME280;26644;50.248;19.032;2023-03-11T05:54:51;95642.84;;;2.75;79.40
40918;BME280;26644;50.248;19.032;2023-03-11T05:58:01;95646.53;;;2.65;79.32
40918;BME280;26644;50.248;19.032;2023-03-11T06:01:07;95654.25;;;2.58;78.98
40918;BME280;26644;50.248;19.032;2023-03-11T06:04:13;95647.53;;;2.55;79.24
40918;BME280;26644;50.248;19.032;2023-03-11T06:07:21;95647.06;;;2.48;79.43
40918;BME280;26644;50.248;19.032;2023-03-11T06:10:26;95670.13;;;2.46;79.42
40918;BME280;26644;50.248;19.032;2023-03-11T06:13:32;95670.88;;;2.32;80.00
40918;BME280;26644;50.248;19.032;2023-03-11T06:16:38;95672.16;;;2.21;80.32
40918;BME280;26644;50.248;19.032;2023-03-11T06:19:44;95674.59;;;1.98;80.34
40918;BME280;26644;50.248;19.032;2023-03-11T06:22:53;95662.22;;;1.73;80.84
40918;BME280;26644;50.248;19.032;2023-03-11T06:26:01;95698.50;;;1.72;81.31
40918;BME280;26644;50.248;19.032;2023-03-11T06:29:13;95694.59;;;1.59;81.92
40918;BME280;26644;50.248;19.032;2023-03-11T06:32:19;95718.41;;;1.57;82.04
40918;BME280;26644;50.248;19.032;2023-03-11T06:35:25;95711.97;;;1.53;82.05
40918;BME280;26644;50.248;19.032;2023-03-11T06:38:33;95689.13;;;1.40;82.27
40918;BME280;26644;50.248;19.032;2023-03-11T06:41:39;95725.38;;;1.39;82.19
40918;BME280;26644;50.248;19.032;2023-03-11T06:44:46;95724.03;;;1.36;82.47
40918;BME280;26644;50.248;19.032;2023-03-11T06:47:51;95733.47;;;1.39;82.63
40918;BME280;26644;50.248;19.032;2023-03-11T06:50:58;95727.25;;;1.38;82.82
40918;BME280;26644;50.248;19.032;2023-03-11T06:54:09;95719.91;;;1.44;82.94
40918;BME280;26644;50.248;19.032;2023-03-11T06:57:15;95734.22;;;1.44;83.10
40918;BME280;26644;50.248;19.032;2023-03-11T07:00:23;95736.38;;;1.42;83.02
40918;BME280;26644;50.248;19.032;2023-03-11T07:03:32;95721.97;;;1.28;82.92
40918;BME280;26644;50.248;19.032;2023-03-11T07:06:41;95751.88;;;1.37;82.83
40918;BME280;26644;50.248;19.032;2023-03-11T07:09:56;95763.38;;;1.48;82.92
40918;BME280;26644;50.248;19.032;2023-03-11T07:13:02;95766.94;;;1.43;83.00
40918;BME280;26644;50.248;19.032;2023-03-11T07:16:09;95768.84;;;1.42;82.90
40918;BME280;26644;50.248;19.032;2023-03-11T07:19:17;95770.25;;;1.40;82.78
40918;BME280;26644;50.248;19.032;2023-03-11T07:22:22;95764.84;;;1.40;82.84
40918;BME280;26644;50.248;19.032;2023-03-11T07:25:30;95775.22;;;1.52;83.20
40918;BME280;26644;50.248;19.032;2023-03-11T07:28:35;95769.03;;;1.51;82.91
40918;BME280;26644;50.248;19.032;2023-03-11T07:31:41;95773.97;;;1.44;82.76
40918;BME280;26644;50.248;19.032;2023-03-11T07:34:45;95776.63;;;1.49;83.07
40918;BME280;26644;50.248;19.032;2023-03-11T07:37:51;95785.38;;;1.36;82.98
40918;BME280;26644;50.248;19.032;2023-03-11T07:41:01;95775.91;;;1.38;82.96
40918;BME280;26644;50.248;19.032;2023-03-11T07:44:06;95800.97;;;1.49;83.00
40918;BME280;26644;50.248;19.032;2023-03-11T07:47:11;95802.34;;;1.47;82.98
40918;BME280;26644;50.248;19.032;2023-03-11T07:50:17;95798.31;;;1.44;83.07
40918;BME280;26644;50.248;19.032;2023-03-11T07:53:22;95817.19;;;1.49;82.79
40918;BME280;26644;50.248;19.032;2023-03-11T07:56:33;95796.75;;;1.38;83.23
40918;BME280;26644;50.248;19.032;2023-03-11T07:59:38;95804.84;;;1.38;83.05
40918;BME280;26644;50.248;19.032;2023-03-11T08:02:44;95827.47;;;1.47;83.45
40918;BME280;26644;50.248;19.032;2023-03-11T08:05:48;95832.09;;;1.47;83.54
40918;BME280;26644;50.248;19.032;2023-03-11T08:08:54;95832.91;;;1.42;83.41
40918;BME280;26644;50.248;19.032;2023-03-11T08:12:02;95825.44;;;1.34;83.57
40918;BME280;26644;50.248;19.032;2023-03-11T08:15:09;95836.81;;;1.31;83.23
40918;BME280;26644;50.248;19.032;2023-03-11T08:18:14;95833.38;;;1.20;83.56
40918;BME280;26644;50.248;19.032;2023-03-11T08:21:22;95851.94;;;1.32;84.01
40918;BME280;26644;50.248;19.032;2023-03-11T08:24:29;95857.28;;;1.37;83.72
40918;BME280;26644;50.248;19.032;2023-03-11T08:27:37;95852.97;;;1.36;83.73
40918;BME280;26644;50.248;19.032;2023-03-11T08:30:42;95856.50;;;1.36;83.60
40918;BME280;26644;50.248;19.032;2023-03-11T08:33:49;95860.00;;;1.37;83.29
40918;BME280;26644;50.248;19.032;2023-03-11T08:37:01;95861.72;;;1.22;83.21
40918;BME280;26644;50.248;19.032;2023-03-11T08:40:08;95857.75;;;1.15;83.65
40918;BME280;26644;50.248;19.032;2023-03-11T08:43:16;95881.19;;;1.24;83.02
40918;BME280;26644;50.248;19.032;2023-03-11T08:46:24;95878.19;;;1.26;83.21
40918;BME280;26644;50.248;19.032;2023-03-11T08:49:31;95894.66;;;1.30;83.11
40918;BME280;26644;50.248;19.032;2023-03-11T08:52:37;95888.94;;;1.36;83.05
40918;BME280;26644;50.248;19.032;2023-03-11T08:55:42;95883.00;;;1.34;82.85
40918;BME280;26644;50.248;19.032;2023-03-11T08:58:50;95894.31;;;1.41;82.45
40918;BME280;26644;50.248;19.032;2023-03-11T09:01:55;95896.19;;;1.41;83.00
40918;BME280;26644;50.248;19.032;2023-03-11T09:05:01;95866.63;;;1.20;82.67
40918;BME280;26644;50.248;19.032;2023-03-11T09:08:06;95889.81;;;1.26;82.10
40918;BME280;26644;50.248;19.032;2023-03-11T09:11:12;95906.31;;;1.25;82.06
40918;BME280;26644;50.248;19.032;2023-03-11T09:14:21;95918.00;;;1.15;82.51
40918;BME280;26644;50.248;19.032;2023-03-11T09:17:27;95914.84;;;1.03;83.26
40918;BME280;26644;50.248;19.032;2023-03-11T09:20:31;95933.75;;;1.03;83.75
40918;BME280;26644;50.248;19.032;2023-03-11T09:23:37;95911.97;;;0.84;83.93
40918;BME280;26644;50.248;19.032;2023-03-11T09:26:42;95937.09;;;0.84;84.01
40918;BME280;26644;50.248;19.032;2023-03-11T09:29:50;95945.47;;;0.83;84.42
40918;BME280;26644;50.248;19.032;2023-03-11T09:32:55;95933.38;;;0.75;84.28
40918;BME280;26644;50.248;19.032;2023-03-11T09:36:00;95957.38;;;0.82;84.59
40918;BME280;26644;50.248;19.032;2023-03-11T09:39:05;95950.88;;;0.83;84.42
40918;BME280;26644;50.248;19.032;2023-03-11T09:42:19;95949.81;;;0.73;84.28
40918;BME280;26644;50.248;19.032;2023-03-11T09:45:38;95943.63;;;0.78;84.63
40918;BME280;26644;50.248;19.032;2023-03-11T09:49:02;95958.16;;;0.87;84.36
40918;BME280;26644;50.248;19.032;2023-03-11T09:52:24;95974.94;;;0.84;84.02
40918;BME280;26644;50.248;19.032;2023-03-11T09:55:43;95967.66;;;0.74;83.67
40918;BME280;26644;50.248;19.032;2023-03-11T09:58:53;95978.97;;;0.82;84.12
40918;BME280;26644;50.248;19.032;2023-03-11T10:02:14;95973.63;;;0.71;84.07
40918;BME280;26644;50.248;19.032;2023-03-11T10:05:24;95988.69;;;0.83;84.38
40918;BME280;26644;50.248;19.032;2023-03-11T10:08:38;96005.94;;;0.92;84.60
40918;BME280;26644;50.248;19.032;2023-03-11T10:11:55;96003.50;;;0.90;83.81
40918;BME280;26644;50.248;19.032;2023-03-11T10:15:19;96015.66;;;0.93;83.60
40918;BME280;26644;50.248;19.032;2023-03-11T10:18:45;96030.22;;;0.97;83.29
40918;BME280;26644;50.248;19.032;2023-03-11T10:22:08;96025.09;;;1.01;83.56
40918;BME280;26644;50.248;19.032;2023-03-11T10:25:24;96032.63;;;1.04;83.35
40918;BME280;26644;50.248;19.032;2023-03-11T10:28:36;96034.00;;;1.01;83.03
40918;BME280;26644;50.248;19.032;2023-03-11T10:31:52;96031.34;;;0.91;83.08
40918;BME280;26644;50.248;19.032;2023-03-11T10:35:16;96038.88;;;0.99;83.33
40918;BME280;26644;50.248;19.032;2023-03-11T10:38:26;96061.81;;;1.07;83.24
40918;BME280;26644;50.248;19.032;2023-03-11T10:41:42;96052.69;;;0.92;83.19
40918;BME280;26644;50.248;19.032;2023-03-11T10:44:50;96074.53;;;1.01;83.39
40918;BME280;26644;50.248;19.032;2023-03-11T10:47:56;96088.28;;;1.05;83.63
40918;BME280;26644;50.248;19.032;2023-03-11T10:51:14;96091.81;;;1.05;82.98
40918;BME280;26644;50.248;19.032;2023-03-11T10:54:26;96093.97;;;1.03;82.92
40918;BME280;26644;50.248;19.032;2023-03-11T10:57:35;96100.72;;;1.06;83.24
40918;BME280;26644;50.248;19.032;2023-03-11T11:00:42;96106.16;;;1.01;82.88
40918;BME280;26644;50.248;19.032;2023-03-11T11:03:49;96102.91;;;0.99;82.98
40918;BME280;26644;50.248;19.032;2023-03-11T11:07:19;96124.22;;;1.10;82.71
40918;BME280;26644;50.248;19.032;2023-03-11T11:10:34;96145.84;;;1.10;82.05
40918;BME280;26644;50.248;19.032;2023-03-11T11:13:55;96145.84;;;1.10;82.13
40918;BME280;26644;50.248;19.032;2023-03-11T11:17:00;96150.72;;;1.14;82.37
40918;BME280;26644;50.248;19.032;2023-03-11T11:20:17;96161.25;;;1.15;82.06
40918;BME280;26644;50.248;19.032;2023-03-11T11:23:31;96157.75;;;1.09;82.23
40918;BME280;26644;50.248;19.032;2023-03-11T11:26:39;96156.13;;;1.03;82.07
40918;BME280;26644;50.248;19.032;2023-03-11T11:29:45;96168.28;;;1.06;81.66
40918;BME280;26644;50.248;19.032;2023-03-11T11:32:51;96196.38;;;1.15;80.99
40918;BME280;26644;50.248;19.032;2023-03-11T11:36:00;96200.16;;;1.19;80.47
40918;BME280;26644;50.248;19.032;2023-03-11T11:39:16;96206.88;;;1.37;80.76
40918;BME280;26644;50.248;19.032;2023-03-11T11:42:27;96226.03;;;1.41;80.56
40918;BME280;26644;50.248;19.032;2023-03-11T11:45:39;96230.34;;;1.47;80.45
40918;BME280;26644;50.248;19.032;2023-03-11T11:48:51;96236.56;;;1.42;78.97
40918;BME280;26644;50.248;19.032;2023-03-11T11:52:08;96258.47;;;1.46;79.67
40918;BME280;26644;50.248;19.032;2023-03-11T11:55:23;96252.00;;;1.47;79.54
40918;BME280;26644;50.248;19.032;2023-03-11T11:58:31;96257.69;;;1.46;78.71
40918;BME280;26644;50.248;19.032;2023-03-11T12:01:47;96273.91;;;1.40;77.83
40918;BME280;26644;50.248;19.032;2023-03-11T12:05:08;96275.03;;;1.24;77.40
40918;BME280;26644;50.248;19.032;2023-03-11T12:08:25;96296.88;;;1.38;77.62
40918;BME280;26644;50.248;19.032;2023-03-11T12:11:47;96311.75;;;1.25;77.86
40918;BME280;26644;50.248;19.032;2023-03-11T12:15:06;96323.69;;;1.14;78.85
40918;BME280;26644;50.248;19.032;2023-03-11T12:18:24;96333.66;;;1.08;79.61
40918;BME280;26644;50.248;19.032;2023-03-11T12:21:54;96323.94;;;1.02;80.26
40918;BME280;26644;50.248;19.032;2023-03-11T12:25:25;96330.69;;;0.94;79.96
40918;BME280;26644;50.248;19.032;2023-03-11T12:28:44;96331.22;;;0.86;79.28
40918;BME280;26644;50.248;19.032;2023-03-11T12:31:56;96349.34;;;1.01;79.15
40918;BME280;26644;50.248;19.032;2023-03-11T12:35:13;96342.84;;;1.02;79.28
40918;BME280;26644;50.248;19.032;2023-03-11T12:38:31;96360.44;;;1.15;78.24
40918;BME280;26644;50.248;19.032;2023-03-11T12:41:39;96352.31;;;1.20;78.30
40918;BME280;26644;50.248;19.032;2023-03-11T12:44:50;96384.22;;;1.23;77.99
40918;BME280;26644;50.248;19.032;2023-03-11T12:48:31;96386.66;;;1.24;78.30
40918;BME280;26644;50.248;19.032;2023-03-11T12:51:38;96404.47;;;1.15;78.63
40918;BME280;26644;50.248;19.032;2023-03-11T12:54:44;96389.88;;;1.01;79.12
40918;BME280;26644;50.248;19.032;2023-03-11T12:58:10;96412.84;;;1.08;79.47
40918;BME280;26644;50.248;19.032;2023-03-11T13:02:05;96434.75;;;1.07;77.87
40918;BME280;26644;50.248;19.032;2023-03-11T13:05:33;96434.47;;;1.03;77.88
40918;BME280;26644;50.248;19.032;2023-03-11T13:08:53;96447.97;;;1.03;77.71
40918;BME280;26644;50.248;19.032;2023-03-11T13:12:01;96469.59;;;1.08;77.58
40918;BME280;26644;50.248;19.032;2023-03-11T13:15:28;96477.44;;;1.10;77.72
40918;BME280;26644;50.248;19.032;2023-03-11T13:18:41;96468.22;;;0.96;78.32
40918;BME280;26644;50.248;19.032;2023-03-11T13:21:47;96492.28;;;1.02;78.73
40918;BME280;26644;50.248;19.032;2023-03-11T13:24:53;96489.06;;;1.05;78.98
40918;BME280;26644;50.248;19.032;2023-03-11T13:28:12;96517.19;;;1.09;78.76
40918;BME280;26644;50.248;19.032;2023-03-11T13:31:41;96515.28;;;1.10;78.52
40918;BME280;26644;50.248;19.032;2023-03-11T13:35:15;96520.66;;;1.05;78.13
40918;BME280;26644;50.248;19.032;2023-03-11T13:38:45;96526.88;;;1.00;77.95
40918;BME280;26644;50.248;19.032;2023-03-11T13:42:39;96543.88;;;0.96;77.62
40918;BME280;26644;50.248;19.032;2023-03-11T13:46:10;96530.91;;;0.92;77.97
40918;BME280;26644;50.248;19.032;2023-03-11T13:49:42;96537.16;;;1.03;78.13
40918;BME280;26644;50.248;19.032;2023-03-11T13:53:18;96573.88;;;0.99;77.95
40918;BME280;26644;50.248;19.032;2023-03-11T13:56:32;96569.25;;;0.94;78.13
40918;BME280;26644;50.248;19.032;2023-03-11T13:59:42;96574.94;;;0.93;77.84
40918;BME280;26644;50.248;19.032;2023-03-11T14:02:50;96556.69;;;0.68;77.76
40918;BME280;26644;50.248;19.032;2023-03-11T14:06:02;96587.56;;;0.82;78.20
40918;BME280;26644;50.248;19.032;2023-03-11T14:09:19;96594.34;;;0.85;77.60
40918;BME280;26644;50.248;19.032;2023-03-11T14:12:30;96564.75;;;0.63;77.88
40918;BME280;26644;50.248;19.032;2023-03-11T14:15:46;96614.13;;;0.96;77.58
40918;BME280;26644;50.248;19.032;2023-03-11T14:19:02;96617.34;;;0.92;76.99
40918;BME280;26644;50.248;19.032;2023-03-11T14:22:24;96629.22;;;0.91;77.22
40918;BME280;26644;50.248;19.032;2023-03-11T14:25:46;96637.09;;;0.98;76.91
40918;BME280;26644;50.248;19.032;2023-03-11T14:29:09;96603.97;;;0.70;77.02
40918;BME280;26644;50.248;19.032;2023-03-11T14:32:34;96645.19;;;0.93;77.73
40918;BME280;26644;50.248;19.032;2023-03-11T14:35:40;96656.00;;;0.93;78.17
40918;BME280;26644;50.248;19.032;2023-03-11T14:38:45;96670.56;;;0.92;78.05
40918;BME280;26644;50.248;19.032;2023-03-11T14:42:03;96661.34;;;0.88;78.31
40918;BME280;26644;50.248;19.032;2023-03-11T14:45:22;96687.91;;;0.96;78.26
40918;BME280;26644;50.248;19.032;2023-03-11T14:48:34;96690.63;;;0.96;77.75
40918;BME280;26644;50.248;19.032;2023-03-11T14:51:42;96694.66;;;0.93;76.71
40918;BME280;26644;50.248;19.032;2023-03-11T14:54:51;96690.31;;;0.92;76.14
40918;BME280;26644;50.248;19.032;2023-03-11T14:58:03;96688.97;;;0.95;75.42
40918;BME280;26644;50.248;19.032;2023-03-11T15:01:19;96715.22;;;1.00;75.13
40918;BME280;26644;50.248;19.032;2023-03-11T15:04:31;96691.66;;;0.90;74.83
40918;BME280;26644;50.248;19.032;2023-03-11T15:07:40;96737.44;;;1.07;74.19
40918;BME280;26644;50.248;19.032;2023-03-11T15:11:07;96726.91;;;1.05;73.53
40918;BME280;26644;50.248;19.032;2023-03-11T15:14:27;96689.94;;;0.79;73.17
40918;BME280;26644;50.248;19.032;2023-03-11T15:17:34;96749.63;;;1.09;73.37
40918;BME280;26644;50.248;19.032;2023-03-11T15:20:39;96752.81;;;1.06;72.52
40918;BME280;26644;50.248;19.032;2023-03-11T15:23:46;96738.66;;;0.89;72.88
40918;BME280;26644;50.248;19.032;2023-03-11T15:26:56;96743.88;;;1.01;73.32
40918;BME280;26644;50.248;19.032;2023-03-11T15:30:19;96761.81;;;1.12;73.49
40918;BME280;26644;50.248;19.032;2023-03-11T15:33:32;96748.47;;;1.00;73.60
40918;BME280;26644;50.248;19.032;2023-03-11T15:36:42;96738.94;;;0.92;73.94
40918;BME280;26644;50.248;19.032;2023-03-11T15:39:49;96766.91;;;1.08;74.22
40918;BME280;26644;50.248;19.032;2023-03-11T15:43:20;96790.69;;;1.12;74.53
40918;BME280;26644;50.248;19.032;2023-03-11T15:46:32;96780.06;;;1.00;74.70
40918;BME280;26644;50.248;19.032;2023-03-11T15:49:37;96812.03;;;1.08;75.18
40918;BME280;26644;50.248;19.032;2023-03-11T15:52:42;96802.25;;;1.02;74.22
40918;BME280;26644;50.248;19.032;2023-03-11T15:55:47;96817.31;;;0.92;74.27
40918;BME280;26644;50.248;19.032;2023-03-11T15:58:53;96811.91;;;0.92;74.50
40918;BME280;26644;50.248;19.032;2023-03-11T16:02:01;96826.53;;;0.97;74.34
40918;BME280;26644;50.248;19.032;2023-03-11T16:05:12;96799.03;;;0.72;73.59
40918;BME280;26644;50.248;19.032;2023-03-11T16:08:18;96852.03;;;0.79;72.28
40918;BME280;26644;50.248;19.032;2023-03-11T16:11:23;96823.78;;;0.64;72.03
40918;BME280;26644;50.248;19.032;2023-03-11T16:14:32;96836.44;;;0.58;72.22
40918;BME280;26644;50.248;19.032;2023-03-11T16:17:40;96861.16;;;0.72;72.68
40918;BME280;26644;50.248;19.032;2023-03-11T16:20:47;96853.50;;;0.64;71.88
40918;BME280;26644;50.248;19.032;2023-03-11T16:23:56;96874.88;;;0.66;71.42
40918;BME280;26644;50.248;19.032;2023-03-11T16:27:00;96879.75;;;0.69;71.43
40918;BME280;26644;50.248;19.032;2023-03-11T16:30:08;96873.50;;;0.63;71.39
40918;BME280;26644;50.248;19.032;2023-03-11T16:33:19;96871.00;;;0.62;71.15
40918;BME280;26644;50.248;19.032;2023-03-11T16:36:24;96889.97;;;0.67;71.13
40918;BME280;26644;50.248;19.032;2023-03-11T16:39:29;96904.66;;;0.76;71.86
40918;BME280;26644;50.248;19.032;2023-03-11T16:42:35;96912.56;;;0.83;72.17
40918;BME280;26644;50.248;19.032;2023-03-11T16:45:39;96914.22;;;0.84;72.39
40918;BME280;26644;50.248;19.032;2023-03-11T16:48:48;96917.25;;;0.87;71.89